createdAt,value
2024-04-19T00:00:41.036Z,943.4
2024-04-19T00:15:39.783Z,943.5
2024-04-19T00:30:41.007Z,943.5
2024-04-19T00:45:41.495Z,943.2
2024-04-19T01:00:42.093Z,943
2024-04-19T01:15:42.442Z,942.9
2024-04-19T01:30:43.355Z,943
2024-04-19T01:45:44.399Z,942.9
2024-04-19T02:00:44.820Z,942.7
2024-04-19T02:15:46.131Z,942.4
2024-04-19T02:30:48.568Z,942.4
2024-04-19T02:45:59.049Z,942.2
2024-04-19T03:00:47.975Z,942.1
2024-04-19T03:15:48.553Z,942.1
2024-04-19T03:30:49.236Z,941.7
2024-04-19T03:45:50.580Z,941.6
2024-04-19T04:00:52.837Z,941.4
2024-04-19T04:15:51.549Z,941.4
2024-04-19T04:30:51.361Z,941.3
2024-04-19T04:40:08.898Z,941.4
2024-04-19T04:55:08.767Z,941.6
2024-04-19T05:10:09.263Z,941.6
2024-04-19T05:25:10.232Z,941.7
2024-04-19T05:40:10.340Z,941.8
2024-04-19T05:55:11.310Z,941.9
2024-04-19T06:10:16.315Z,941.8
2024-04-19T06:25:12.545Z,941.2
2024-04-19T06:40:17.073Z,941.2
2024-04-19T06:55:14.290Z,941
2024-04-19T07:10:15.200Z,941.1
2024-04-19T07:25:15.302Z,941.1
2024-04-19T07:40:16.221Z,941.1
2024-04-19T07:55:20.244Z,941
2024-04-19T08:10:17.923Z,941.2
2024-04-19T08:40:19.756Z,941.1
2024-04-19T08:55:19.347Z,940.9
2024-04-19T09:10:22.156Z,940.6
2024-04-19T09:25:21.715Z,940.9
2024-04-19T09:40:28.359Z,940.9
2024-04-19T09:55:24.125Z,940
2024-04-19T10:10:23.903Z,935.6
2024-04-19T10:25:33.703Z,935.6
2024-04-19T10:40:23.415Z,936.4
2024-04-19T10:55:25.545Z,931.7
2024-04-19T11:10:25.284Z,931.9
2024-04-19T11:25:25.807Z,930.3
2024-04-19T11:40:27.286Z,929.8
2024-04-19T11:55:27.806Z,930.3
2024-04-19T12:10:27.948Z,931.1
2024-04-19T12:25:43.219Z,931.1
2024-04-19T12:41:08.882Z,934.5
2024-04-19T12:55:58.792Z,935.6
2024-04-19T13:10:30.536Z,936.7
2024-04-19T13:25:42.682Z,936.7
2024-04-19T13:40:36.287Z,936.7
2024-04-19T13:55:38.609Z,937.3
2024-04-19T14:10:33.559Z,937.2
2024-04-19T14:25:39.920Z,937.2
2024-04-19T14:40:34.543Z,936.7
2024-04-19T14:55:34.559Z,936.4
2024-04-19T15:10:35.518Z,936.1
2024-04-19T15:25:44.602Z,935.8
2024-04-19T15:40:42.006Z,935.8
2024-04-19T15:55:40.188Z,935.8
2024-04-19T16:10:40.771Z,935.7
2024-04-19T16:25:45.693Z,935.4
2024-04-19T16:40:42.659Z,935.3
2024-04-19T16:55:41.451Z,935.4
2024-04-19T17:10:40.993Z,935
2024-04-19T17:25:42.765Z,935
2024-04-19T17:40:45.103Z,935
2024-04-19T17:55:45.467Z,935.1
2024-04-19T18:10:45.119Z,935.1
2024-04-19T18:25:50.895Z,935.1
2024-04-19T18:41:06.078Z,935.1
2024-04-19T18:55:50.335Z,935.4
2024-04-19T19:10:51.668Z,935.4
2024-04-19T19:26:05.235Z,935.6
2024-04-19T19:40:48.226Z,935.7
2024-04-19T19:55:49.311Z,935.6
2024-04-19T20:10:55.926Z,935.6
2024-04-19T20:26:05.505Z,935.6
2024-04-19T20:41:12.343Z,935.4
2024-04-19T20:56:06.487Z,935.5
2024-04-19T21:10:55.205Z,935.9
2024-04-19T21:25:54.017Z,936.3
2024-04-19T21:40:53.605Z,936.5
2024-04-19T21:55:55.561Z,936.5
2024-04-19T22:00:40.225Z,936.5
2024-04-19T22:15:38.895Z,936.3
2024-04-19T22:30:38.330Z,936.3
2024-04-19T22:45:45.959Z,936.3
2024-04-19T23:15:50.464Z,936
2024-04-19T23:30:51.606Z,936.1
2024-04-19T23:45:53.050Z,936.6
